sensor_id;sensor_type;location;lat;lon;timestamp;P1;durP1;ratioP1;P2;durP2;ratioP2
6937;SDS011;40040;42.706;23.372;2023-04-16T00:01:54;14.48;;;7.28;;
6937;SDS011;40040;42.706;23.372;2023-04-16T00:04:21;16.70;;;6.90;;
6937;SDS011;40040;42.706;23.372;2023-04-16T00:06:48;15.23;;;6.93;;
6937;SDS011;40040;42.706;23.372;2023-04-16T00:09:17;17.23;;;6.78;;
6937;SDS011;40040;42.706;23.372;2023-04-16T00:11:44;14.23;;;6.80;;
6937;SDS011;40040;42.706;23.372;2023-04-16T00:14:10;16.05;;;7.00;;
6937;SDS011;40040;42.706;23.372;2023-04-16T00:16:37;14.52;;;6.60;;
6937;SDS011;40040;42.706;23.372;2023-04-16T00:19:04;14.10;;;6.82;;
6937;SDS011;40040;42.706;23.372;2023-04-16T00:21:31;16.35;;;7.15;;
6937;SDS011;40040;42.706;23.372;2023-04-16T00:23:57;10.98;;;6.72;;
6937;SDS011;40040;42.706;23.372;2023-04-16T00:26:26;13.93;;;6.70;;
6937;SDS011;40040;42.706;23.372;2023-04-16T00:28:52;14.45;;;6.45;;
6937;SDS011;40040;42.706;23.372;2023-04-16T00:31:25;14.60;;;7.07;;
6937;SDS011;40040;42.706;23.372;2023-04-16T00:33:52;18.75;;;7.47;;
6937;SDS011;40040;42.706;23.372;2023-04-16T00:36:19;15.65;;;7.07;;
6937;SDS011;40040;42.706;23.372;2023-04-16T00:38:46;13.40;;;6.75;;
6937;SDS011;40040;42.706;23.372;2023-04-16T00:41:13;14.38;;;6.60;;
6937;SDS011;40040;42.706;23.372;2023-04-16T00:43:41;14.50;;;6.68;;
6937;SDS011;40040;42.706;23.372;2023-04-16T00:46:08;13.13;;;6.53;;
6937;SDS011;40040;42.706;23.372;2023-04-16T00:48:35;8.00;;;4.88;;
6937;SDS011;40040;42.706;23.372;2023-04-16T00:51:04;8.93;;;5.10;;
6937;SDS011;40040;42.706;23.372;2023-04-16T00:53:32;7.93;;;4.88;;
6937;SDS011;40040;42.706;23.372;2023-04-16T00:56:00;7.43;;;4.25;;
6937;SDS011;40040;42.706;23.372;2023-04-16T00:58:28;5.78;;;4.10;;
6937;SDS011;40040;42.706;23.372;2023-04-16T01:00:57;7.32;;;4.93;;
6937;SDS011;40040;42.706;23.372;2023-04-16T01:03:24;5.47;;;4.40;;
6937;SDS011;40040;42.706;23.372;2023-04-16T01:06:00;11.38;;;5.65;;
6937;SDS011;40040;42.706;23.372;2023-04-16T01:08:26;7.28;;;4.57;;
6937;SDS011;40040;42.706;23.372;2023-04-16T01:10:53;10.95;;;6.60;;
6937;SDS011;40040;42.706;23.372;2023-04-16T01:13:21;10.70;;;7.63;;
6937;SDS011;40040;42.706;23.372;2023-04-16T01:15:48;14.80;;;8.20;;
6937;SDS011;40040;42.706;23.372;2023-04-16T01:18:16;10.88;;;7.65;;
6937;SDS011;40040;42.706;23.372;2023-04-16T01:20:46;13.75;;;7.60;;
6937;SDS011;40040;42.706;23.372;2023-04-16T01:23:12;10.25;;;6.97;;
6937;SDS011;40040;42.706;23.372;2023-04-16T01:25:39;12.55;;;7.50;;
6937;SDS011;40040;42.706;23.372;2023-04-16T01:28:06;13.25;;;7.25;;
6937;SDS011;40040;42.706;23.372;2023-04-16T01:30:33;11.23;;;7.63;;
6937;SDS011;40040;42.706;23.372;2023-04-16T01:33:00;12.65;;;7.93;;
6937;SDS011;40040;42.706;23.372;2023-04-16T01:35:27;9.95;;;7.13;;
6937;SDS011;40040;42.706;23.372;2023-04-16T01:37:55;11.75;;;7.47;;
6937;SDS011;40040;42.706;23.372;2023-04-16T01:40:22;10.85;;;7.47;;
6937;SDS011;40040;42.706;23.372;2023-04-16T01:42:49;14.27;;;7.50;;
6937;SDS011;40040;42.706;23.372;2023-04-16T01:45:16;15.20;;;8.82;;
6937;SDS011;40040;42.706;23.372;2023-04-16T01:47:43;16.77;;;8.45;;
6937;SDS011;40040;42.706;23.372;2023-04-16T01:50:10;16.50;;;8.55;;
6937;SDS011;40040;42.706;23.372;2023-04-16T01:52:37;12.23;;;8.48;;
6937;SDS011;40040;42.706;23.372;2023-04-16T01:55:05;12.80;;;8.23;;
6937;SDS011;40040;42.706;23.372;2023-04-16T01:57:33;13.18;;;8.43;;
6937;SDS011;40040;42.706;23.372;2023-04-16T01:59:59;14.48;;;8.15;;
6937;SDS011;40040;42.706;23.372;2023-04-16T02:02:27;12.70;;;8.07;;
6937;SDS011;40040;42.706;23.372;2023-04-16T02:04:55;14.65;;;9.00;;
6937;SDS011;40040;42.706;23.372;2023-04-16T02:07:22;13.38;;;8.50;;
6937;SDS011;40040;42.706;23.372;2023-04-16T02:09:50;15.38;;;8.48;;
6937;SDS011;40040;42.706;23.372;2023-04-16T02:12:18;18.27;;;9.07;;
6937;SDS011;40040;42.706;23.372;2023-04-16T02:14:45;18.25;;;10.10;;
6937;SDS011;40040;42.706;23.372;2023-04-16T02:17:12;17.02;;;9.70;;
6937;SDS011;40040;42.706;23.372;2023-04-16T02:19:39;14.70;;;9.20;;
6937;SDS011;40040;42.706;23.372;2023-04-16T02:22:06;19.75;;;9.30;;
6937;SDS011;40040;42.706;23.372;2023-04-16T02:24:33;14.27;;;9.27;;
6937;SDS011;40040;42.706;23.372;2023-04-16T02:27:00;17.50;;;9.27;;
6937;SDS011;40040;42.706;23.372;2023-04-16T02:29:28;15.15;;;9.60;;
6937;SDS011;40040;42.706;23.372;2023-04-16T02:31:56;16.00;;;9.70;;
6937;SDS011;40040;42.706;23.372;2023-04-16T02:34:23;15.90;;;9.15;;
6937;SDS011;40040;42.706;23.372;2023-04-16T02:36:50;17.73;;;10.05;;
6937;SDS011;40040;42.706;23.372;2023-04-16T02:39:18;13.00;;;8.07;;
6937;SDS011;40040;42.706;23.372;2023-04-16T02:41:45;17.00;;;8.57;;
6937;SDS011;40040;42.706;23.372;2023-04-16T02:44:11;16.30;;;9.18;;
6937;SDS011;40040;42.706;23.372;2023-04-16T02:46:40;14.95;;;8.70;;
6937;SDS011;40040;42.706;23.372;2023-04-16T02:49:06;16.58;;;10.15;;
6937;SDS011;40040;42.706;23.372;2023-04-16T02:51:33;14.13;;;8.75;;
6937;SDS011;40040;42.706;23.372;2023-04-16T02:54:00;11.88;;;8.15;;
6937;SDS011;40040;42.706;23.372;2023-04-16T02:56:27;13.65;;;8.25;;
6937;SDS011;40040;42.706;23.372;2023-04-16T02:58:54;13.27;;;9.10;;
6937;SDS011;40040;42.706;23.372;2023-04-16T03:01:20;12.93;;;8.88;;
6937;SDS011;40040;42.706;23.372;2023-04-16T03:03:48;14.32;;;8.70;;
6937;SDS011;40040;42.706;23.372;2023-04-16T03:06:15;11.75;;;7.88;;
6937;SDS011;40040;42.706;23.372;2023-04-16T03:08:42;13.23;;;8.32;;
6937;SDS011;40040;42.706;23.372;2023-04-16T03:11:09;12.73;;;8.30;;
6937;SDS011;40040;42.706;23.372;2023-04-16T03:13:35;16.98;;;7.70;;
6937;SDS011;40040;42.706;23.372;2023-04-16T03:16:02;13.60;;;7.90;;
6937;SDS011;40040;42.706;23.372;2023-04-16T03:18:29;10.50;;;6.93;;
6937;SDS011;40040;42.706;23.372;2023-04-16T03:20:57;9.00;;;6.95;;
6937;SDS011;40040;42.706;23.372;2023-04-16T03:23:24;10.32;;;6.82;;
6937;SDS011;40040;42.706;23.372;2023-04-16T03:25:52;12.45;;;6.93;;
6937;SDS011;40040;42.706;23.372;2023-04-16T03:28:19;8.68;;;6.03;;
6937;SDS011;40040;42.706;23.372;2023-04-16T03:30:49;11.18;;;6.00;;
6937;SDS011;40040;42.706;23.372;2023-04-16T03:33:17;8.98;;;5.75;;
6937;SDS011;40040;42.706;23.372;2023-04-16T03:35:44;13.45;;;6.40;;
6937;SDS011;40040;42.706;23.372;2023-04-16T03:38:12;7.10;;;5.15;;
6937;SDS011;40040;42.706;23.372;2023-04-16T03:40:39;9.35;;;5.35;;
6937;SDS011;40040;42.706;23.372;2023-04-16T03:43:06;9.93;;;5.93;;
6937;SDS011;40040;42.706;23.372;2023-04-16T03:45:32;9.48;;;5.95;;
6937;SDS011;40040;42.706;23.372;2023-04-16T03:47:59;9.65;;;5.15;;
6937;SDS011;40040;42.706;23.372;2023-04-16T03:50:26;7.07;;;5.22;;
6937;SDS011;40040;42.706;23.372;2023-04-16T03:52:53;7.43;;;5.65;;
6937;SDS011;40040;42.706;23.372;2023-04-16T03:55:21;9.27;;;5.22;;
6937;SDS011;40040;42.706;23.372;2023-04-16T03:57:47;9.20;;;5.38;;
6937;SDS011;40040;42.706;23.372;2023-04-16T04:00:14;11.85;;;5.85;;
6937;SDS011;40040;42.706;23.372;2023-04-16T04:02:41;9.48;;;5.40;;
6937;SDS011;40040;42.706;23.372;2023-04-16T04:05:08;7.75;;;5.35;;
6937;SDS011;40040;42.706;23.372;2023-04-16T04:07:35;8.88;;;5.15;;
6937;SDS011;40040;42.706;23.372;2023-04-16T04:10:01;8.38;;;4.88;;
6937;SDS011;40040;42.706;23.372;2023-04-16T04:12:30;9.00;;;4.85;;
6937;SDS011;40040;42.706;23.372;2023-04-16T04:14:57;6.78;;;4.88;;
6937;SDS011;40040;42.706;23.372;2023-04-16T04:17:24;9.60;;;4.70;;
6937;SDS011;40040;42.706;23.372;2023-04-16T04:19:50;8.23;;;5.22;;
6937;SDS011;40040;42.706;23.372;2023-04-16T04:22:18;8.75;;;4.97;;
6937;SDS011;40040;42.706;23.372;2023-04-16T04:24:44;9.05;;;5.30;;
6937;SDS011;40040;42.706;23.372;2023-04-16T04:27:11;6.72;;;4.25;;
6937;SDS011;40040;42.706;23.372;2023-04-16T04:29:39;10.50;;;5.07;;
6937;SDS011;40040;42.706;23.372;2023-04-16T04:32:06;8.80;;;4.70;;
6937;SDS011;40040;42.706;23.372;2023-04-16T04:34:33;7.25;;;4.35;;
6937;SDS011;40040;42.706;23.372;2023-04-16T04:36:59;5.78;;;4.60;;
6937;SDS011;40040;42.706;23.372;2023-04-16T04:39:26;7.55;;;4.47;;
6937;SDS011;40040;42.706;23.372;2023-04-16T04:41:53;8.23;;;4.25;;
6937;SDS011;40040;42.706;23.372;2023-04-16T04:44:20;11.75;;;5.35;;
6937;SDS011;40040;42.706;23.372;2023-04-16T04:46:48;6.70;;;4.13;;
6937;SDS011;40040;42.706;23.372;2023-04-16T04:49:15;9.80;;;5.18;;
6937;SDS011;40040;42.706;23.372;2023-04-16T04:51:42;4.22;;;3.83;;
6937;SDS011;40040;42.706;23.372;2023-04-16T04:54:09;5.63;;;3.90;;
6937;SDS011;40040;42.706;23.372;2023-04-16T04:56:35;4.70;;;3.72;;
6937;SDS011;40040;42.706;23.372;2023-04-16T04:59:02;3.65;;;3.35;;
6937;SDS011;40040;42.706;23.372;2023-04-16T05:01:29;4.88;;;3.70;;
6937;SDS011;40040;42.706;23.372;2023-04-16T05:03:57;4.78;;;3.53;;
6937;SDS011;40040;42.706;23.372;2023-04-16T05:06:24;4.20;;;3.58;;
6937;SDS011;40040;42.706;23.372;2023-04-16T05:08:51;4.25;;;3.30;;
6937;SDS011;40040;42.706;23.372;2023-04-16T05:11:18;6.95;;;3.70;;
6937;SDS011;40040;42.706;23.372;2023-04-16T05:13:44;5.18;;;3.63;;
6937;SDS011;40040;42.706;23.372;2023-04-16T05:16:11;4.72;;;4.20;;
6937;SDS011;40040;42.706;23.372;2023-04-16T05:18:38;5.85;;;3.63;;
6937;SDS011;40040;42.706;23.372;2023-04-16T05:21:06;5.88;;;3.60;;
6937;SDS011;40040;42.706;23.372;2023-04-16T05:23:33;6.00;;;3.88;;
6937;SDS011;40040;42.706;23.372;2023-04-16T05:25:59;4.97;;;3.85;;
6937;SDS011;40040;42.706;23.372;2023-04-16T05:28:26;7.03;;;4.00;;
6937;SDS011;40040;42.706;23.372;2023-04-16T05:30:53;6.10;;;3.78;;
6937;SDS011;40040;42.706;23.372;2023-04-16T05:33:20;6.00;;;3.78;;
6937;SDS011;40040;42.706;23.372;2023-04-16T05:35:46;4.75;;;3.28;;
6937;SDS011;40040;42.706;23.372;2023-04-16T05:38:15;9.18;;;3.63;;
6937;SDS011;40040;42.706;23.372;2023-04-16T05:40:42;9.13;;;3.53;;
6937;SDS011;40040;42.706;23.372;2023-04-16T05:43:08;4.78;;;3.38;;
6937;SDS011;40040;42.706;23.372;2023-04-16T05:45:35;3.58;;;3.33;;
6937;SDS011;40040;42.706;23.372;2023-04-16T05:48:05;5.57;;;3.58;;
6937;SDS011;40040;42.706;23.372;2023-04-16T05:50:33;7.15;;;3.75;;
6937;SDS011;40040;42.706;23.372;2023-04-16T05:52:59;4.43;;;3.40;;
6937;SDS011;40040;42.706;23.372;2023-04-16T05:55:28;6.30;;;3.65;;
6937;SDS011;40040;42.706;23.372;2023-04-16T05:57:55;4.78;;;3.65;;
6937;SDS011;40040;42.706;23.372;2023-04-16T06:00:22;3.60;;;3.30;;
6937;SDS011;40040;42.706;23.372;2023-04-16T06:02:49;4.15;;;3.72;;
6937;SDS011;40040;42.706;23.372;2023-04-16T06:05:16;3.70;;;3.40;;
6937;SDS011;40040;42.706;23.372;2023-04-16T06:07:43;4.78;;;3.40;;
6937;SDS011;40040;42.706;23.372;2023-04-16T06:10:10;6.90;;;3.92;;
6937;SDS011;40040;42.706;23.372;2023-04-16T06:12:38;4.47;;;3.60;;
6937;SDS011;40040;42.706;23.372;2023-04-16T06:15:05;4.88;;;3.80;;
6937;SDS011;40040;42.706;23.372;2023-04-16T06:17:33;6.50;;;3.65;;
6937;SDS011;40040;42.706;23.372;2023-04-16T06:20:00;4.10;;;3.70;;
6937;SDS011;40040;42.706;23.372;2023-04-16T06:22:26;3.95;;;3.55;;
6937;SDS011;40040;42.706;23.372;2023-04-16T06:24:53;4.80;;;4.03;;
6937;SDS011;40040;42.706;23.372;2023-04-16T06:27:20;6.18;;;4.45;;
6937;SDS011;40040;42.706;23.372;2023-04-16T06:29:48;5.07;;;3.72;;
6937;SDS011;40040;42.706;23.372;2023-04-16T06:32:15;6.10;;;4.95;;
6937;SDS011;40040;42.706;23.372;2023-04-16T06:34:42;5.50;;;4.00;;
6937;SDS011;40040;42.706;23.372;2023-04-16T06:37:09;7.72;;;5.13;;
6937;SDS011;40040;42.706;23.372;2023-04-16T06:39:36;4.55;;;3.80;;
6937;SDS011;40040;42.706;23.372;2023-04-16T06:42:03;8.05;;;5.57;;
6937;SDS011;40040;42.706;23.372;2023-04-16T06:44:30;6.10;;;3.97;;
6937;SDS011;40040;42.706;23.372;2023-04-16T06:46:58;4.93;;;3.80;;
6937;SDS011;40040;42.706;23.372;2023-04-16T06:49:25;5.95;;;3.60;;
6937;SDS011;40040;42.706;23.372;2023-04-16T06:51:52;6.72;;;3.92;;
6937;SDS011;40040;42.706;23.372;2023-04-16T06:54:19;4.65;;;3.50;;
6937;SDS011;40040;42.706;23.372;2023-04-16T06:56:45;3.88;;;3.58;;
6937;SDS011;40040;42.706;23.372;2023-04-16T06:59:12;7.53;;;4.05;;
6937;SDS011;40040;42.706;23.372;2023-04-16T07:01:39;5.63;;;4.13;;
6937;SDS011;40040;42.706;23.372;2023-04-16T07:04:07;6.55;;;4.07;;
6937;SDS011;40040;42.706;23.372;2023-04-16T07:06:35;6.75;;;3.70;;
6937;SDS011;40040;42.706;23.372;2023-04-16T07:09:01;5.75;;;3.80;;
6937;SDS011;40040;42.706;23.372;2023-04-16T07:11:28;5.82;;;4.97;;
6937;SDS011;40040;42.706;23.372;2023-04-16T07:13:55;5.22;;;4.30;;
6937;SDS011;40040;42.706;23.372;2023-04-16T07:16:23;8.45;;;5.38;;
6937;SDS011;40040;42.706;23.372;2023-04-16T07:18:49;4.95;;;4.45;;
6937;SDS011;40040;42.706;23.372;2023-04-16T07:21:18;4.80;;;4.28;;
6937;SDS011;40040;42.706;23.372;2023-04-16T07:23:45;7.60;;;4.50;;
6937;SDS011;40040;42.706;23.372;2023-04-16T07:26:11;8.30;;;6.40;;
6937;SDS011;40040;42.706;23.372;2023-04-16T07:28:38;11.48;;;7.38;;
6937;SDS011;40040;42.706;23.372;2023-04-16T07:31:05;34.33;;;19.50;;
6937;SDS011;40040;42.706;23.372;2023-04-16T07:33:32;7.35;;;5.13;;
6937;SDS011;40040;42.706;23.372;2023-04-16T07:35:59;6.47;;;4.82;;
6937;SDS011;40040;42.706;23.372;2023-04-16T07:38:27;4.47;;;4.07;;
6937;SDS011;40040;42.706;23.372;2023-04-16T07:40:54;8.40;;;5.18;;
6937;SDS011;40040;42.706;23.372;2023-04-16T07:43:21;4.50;;;4.10;;
6937;SDS011;40040;42.706;23.372;2023-04-16T07:45:48;5.88;;;4.35;;
6937;SDS011;40040;42.706;23.372;2023-04-16T07:48:15;5.28;;;4.43;;
6937;SDS011;40040;42.706;23.372;2023-04-16T07:50:41;4.53;;;3.63;;
6937;SDS011;40040;42.706;23.372;2023-04-16T07:53:08;4.45;;;4.05;;
6937;SDS011;40040;42.706;23.372;2023-04-16T07:55:36;5.32;;;3.58;;
6937;SDS011;40040;42.706;23.372;2023-04-16T07:58:03;5.65;;;3.85;;
6937;SDS011;40040;42.706;23.372;2023-04-16T08:00:32;8.05;;;4.90;;
6937;SDS011;40040;42.706;23.372;2023-04-16T08:02:58;5.60;;;3.63;;
6937;SDS011;40040;42.706;23.372;2023-04-16T08:05:26;12.07;;;5.90;;
6937;SDS011;40040;42.706;23.372;2023-04-16T08:07:52;6.60;;;4.47;;
6937;SDS011;40040;42.706;23.372;2023-04-16T08:10:19;8.45;;;5.72;;
6937;SDS011;40040;42.706;23.372;2023-04-16T08:12:47;11.25;;;6.65;;
6937;SDS011;40040;42.706;23.372;2023-04-16T08:15:14;5.57;;;4.35;;
6937;SDS011;40040;42.706;23.372;2023-04-16T08:17:41;7.25;;;4.22;;
6937;SDS011;40040;42.706;23.372;2023-04-16T08:20:08;5.15;;;3.55;;
6937;SDS011;40040;42.706;23.372;2023-04-16T08:22:35;26.70;;;11.20;;
6937;SDS011;40040;42.706;23.372;2023-04-16T08:25:02;5.93;;;4.05;;
6937;SDS011;40040;42.706;23.372;2023-04-16T08:27:29;3.97;;;3.60;;
6937;SDS011;40040;42.706;23.372;2023-04-16T08:29:57;4.68;;;2.90;;
6937;SDS011;40040;42.706;23.372;2023-04-16T08:32:24;4.05;;;2.85;;
6937;SDS011;40040;42.706;23.372;2023-04-16T08:34:51;3.28;;;2.97;;
6937;SDS011;40040;42.706;23.372;2023-04-16T08:37:18;4.20;;;2.60;;
6937;SDS011;40040;42.706;23.372;2023-04-16T08:39:45;4.10;;;3.00;;
6937;SDS011;40040;42.706;23.372;2023-04-16T08:42:12;2.97;;;2.78;;
6937;SDS011;40040;42.706;23.372;2023-04-16T08:44:48;3.90;;;3.13;;
6937;SDS011;40040;42.706;23.372;2023-04-16T08:47:26;3.50;;;3.20;;
6937;SDS011;40040;42.706;23.372;2023-04-16T08:49:56;3.75;;;3.10;;
6937;SDS011;40040;42.706;23.372;2023-04-16T08:52:24;3.03;;;2.83;;
6937;SDS011;40040;42.706;23.372;2023-04-16T08:54:55;3.42;;;3.00;;
6937;SDS011;40040;42.706;23.372;2023-04-16T08:57:38;3.15;;;2.80;;
6937;SDS011;40040;42.706;23.372;2023-04-16T09:00:12;3.78;;;2.67;;
6937;SDS011;40040;42.706;23.372;2023-04-16T09:02:41;2.80;;;2.60;;
6937;SDS011;40040;42.706;23.372;2023-04-16T09:05:09;3.10;;;2.60;;
6937;SDS011;40040;42.706;23.372;2023-04-16T09:07:36;20.63;;;8.13;;
6937;SDS011;40040;42.706;23.372;2023-04-16T09:10:04;4.75;;;2.97;;
6937;SDS011;40040;42.706;23.372;2023-04-16T09:12:32;3.28;;;2.75;;
6937;SDS011;40040;42.706;23.372;2023-04-16T09:15:00;6.00;;;3.80;;
6937;SDS011;40040;42.706;23.372;2023-04-16T09:17:29;4.18;;;3.13;;
6937;SDS011;40040;42.706;23.372;2023-04-16T09:19:58;4.65;;;2.80;;
6937;SDS011;40040;42.706;23.372;2023-04-16T09:22:25;2.88;;;2.63;;
6937;SDS011;40040;42.706;23.372;2023-04-16T09:24:51;2.78;;;2.58;;
6937;SDS011;40040;42.706;23.372;2023-04-16T09:27:18;3.05;;;2.70;;
6937;SDS011;40040;42.706;23.372;2023-04-16T09:29:45;4.30;;;3.08;;
6937;SDS011;40040;42.706;23.372;2023-04-16T09:32:12;2.90;;;2.70;;
6937;SDS011;40040;42.706;23.372;2023-04-16T09:34:52;2.80;;;2.60;;
6937;SDS011;40040;42.706;23.372;2023-04-16T09:37:21;3.28;;;2.60;;
6937;SDS011;40040;42.706;23.372;2023-04-16T09:39:51;4.05;;;3.65;;
6937;SDS011;40040;42.706;23.372;2023-04-16T09:42:20;4.68;;;2.70;;
6937;SDS011;40040;42.706;23.372;2023-04-16T09:44:48;3.90;;;2.60;;
6937;SDS011;40040;42.706;23.372;2023-04-16T09:47:15;2.60;;;2.40;;
6937;SDS011;40040;42.706;23.372;2023-04-16T09:49:42;2.50;;;2.30;;
6937;SDS011;40040;42.706;23.372;2023-04-16T09:52:14;4.13;;;2.50;;
6937;SDS011;40040;42.706;23.372;2023-04-16T09:54:46;3.42;;;2.20;;
6937;SDS011;40040;42.706;23.372;2023-04-16T09:57:14;2.50;;;2.30;;
6937;SDS011;40040;42.706;23.372;2023-04-16T09:59:44;2.50;;;2.30;;
6937;SDS011;40040;42.706;23.372;2023-04-16T10:02:11;3.00;;;2.53;;
6937;SDS011;40040;42.706;23.372;2023-04-16T10:04:48;3.63;;;2.00;;
6937;SDS011;40040;42.706;23.372;2023-04-16T10:07:16;3.70;;;2.17;;
6937;SDS011;40040;42.706;23.372;2023-04-16T10:09:43;2.90;;;2.58;;
6937;SDS011;40040;42.706;23.372;2023-04-16T10:12:12;3.40;;;2.33;;
6937;SDS011;40040;42.706;23.372;2023-04-16T10:14:39;2.30;;;2.10;;
6937;SDS011;40040;42.706;23.372;2023-04-16T10:17:06;2.38;;;2.17;;
6937;SDS011;40040;42.706;23.372;2023-04-16T10:19:34;4.40;;;2.60;;
6937;SDS011;40040;42.706;23.372;2023-04-16T10:22:01;2.40;;;2.20;;
6937;SDS011;40040;42.706;23.372;2023-04-16T10:24:29;2.72;;;2.35;;
6937;SDS011;40040;42.706;23.372;2023-04-16T10:26:56;3.30;;;2.40;;
6937;SDS011;40040;42.706;23.372;2023-04-16T10:29:25;2.50;;;2.28;;
6937;SDS011;40040;42.706;23.372;2023-04-16T10:31:53;5.03;;;2.40;;
6937;SDS011;40040;42.706;23.372;2023-04-16T10:34:21;2.40;;;2.20;;
6937;SDS011;40040;42.706;23.372;2023-04-16T10:36:50;3.38;;;2.20;;
6937;SDS011;40040;42.706;23.372;2023-04-16T10:39:18;2.80;;;2.20;;
6937;SDS011;40040;42.706;23.372;2023-04-16T10:41:46;2.70;;;2.50;;
6937;SDS011;40040;42.706;23.372;2023-04-16T10:44:15;2.70;;;2.45;;
6937;SDS011;40040;42.706;23.372;2023-04-16T10:46:45;4.22;;;2.38;;
6937;SDS011;40040;42.706;23.372;2023-04-16T10:49:14;2.63;;;2.40;;
6937;SDS011;40040;42.706;23.372;2023-04-16T10:51:51;2.38;;;2.28;;
6937;SDS011;40040;42.706;23.372;2023-04-16T10:54:19;3.50;;;2.20;;
6937;SDS011;40040;42.706;23.372;2023-04-16T10:56:48;2.50;;;2.30;;
6937;SDS011;40040;42.706;23.372;2023-04-16T10:59:19;2.30;;;2.20;;
6937;SDS011;40040;42.706;23.372;2023-04-16T11:01:49;2.70;;;2.20;;
6937;SDS011;40040;42.706;23.372;2023-04-16T11:04:32;3.10;;;2.47;;
6937;SDS011;40040;42.706;23.372;2023-04-16T11:07:08;3.60;;;2.40;;
6937;SDS011;40040;42.706;23.372;2023-04-16T11:09:50;2.20;;;2.10;;
6937;SDS011;40040;42.706;23.372;2023-04-16T11:12:22;1.73;;;1.73;;
6937;SDS011;40040;42.706;23.372;2023-04-16T11:14:52;2.10;;;2.00;;
6937;SDS011;40040;42.706;23.372;2023-04-16T11:17:20;1.88;;;1.80;;
6937;SDS011;40040;42.706;23.372;2023-04-16T11:19:47;2.72;;;2.10;;
6937;SDS011;40040;42.706;23.372;2023-04-16T11:22:15;2.33;;;2.00;;
6937;SDS011;40040;42.706;23.372;2023-04-16T11:24:43;1.92;;;1.83;;
6937;SDS011;40040;42.706;23.372;2023-04-16T11:27:13;2.90;;;2.40;;
6937;SDS011;40040;42.706;23.372;2023-04-16T11:29:40;4.75;;;2.88;;
6937;SDS011;40040;42.706;23.372;2023-04-16T11:32:07;2.22;;;2.13;;
6937;SDS011;40040;42.706;23.372;2023-04-16T11:34:43;1.95;;;1.90;;
6937;SDS011;40040;42.706;23.372;2023-04-16T11:37:10;3.63;;;2.22;;
6937;SDS011;40040;42.706;23.372;2023-04-16T11:39:50;2.60;;;2.40;;
6937;SDS011;40040;42.706;23.372;2023-04-16T11:42:18;2.35;;;2.00;;
6937;SDS011;40040;42.706;23.372;2023-04-16T11:44:47;3.33;;;1.90;;
6937;SDS011;40040;42.706;23.372;2023-04-16T11:47:17;1.88;;;1.75;;
6937;SDS011;40040;42.706;23.372;2023-04-16T11:49:45;4.00;;;2.10;;
6937;SDS011;40040;42.706;23.372;2023-04-16T11:52:12;2.80;;;1.60;;
6937;SDS011;40040;42.706;23.372;2023-04-16T11:54:39;2.03;;;1.70;;
6937;SDS011;40040;42.706;23.372;2023-04-16T11:57:05;2.00;;;1.90;;
6937;SDS011;40040;42.706;23.372;2023-04-16T11:59:32;2.00;;;1.90;;
6937;SDS011;40040;42.706;23.372;2023-04-16T12:02:01;1.67;;;1.65;;
6937;SDS011;40040;42.706;23.372;2023-04-16T12:04:27;2.58;;;1.70;;
6937;SDS011;40040;42.706;23.372;2023-04-16T12:07:09;2.42;;;2.22;;
6937;SDS011;40040;42.706;23.372;2023-04-16T12:09:37;1.80;;;1.70;;
6937;SDS011;40040;42.706;23.372;2023-04-16T12:12:05;2.08;;;1.85;;
6937;SDS011;40040;42.706;23.372;2023-04-16T12:14:50;3.45;;;2.20;;
6937;SDS011;40040;42.706;23.372;2023-04-16T12:17:17;2.15;;;2.10;;
6937;SDS011;40040;42.706;23.372;2023-04-16T12:19:48;2.08;;;1.90;;
6937;SDS011;40040;42.706;23.372;2023-04-16T12:22:17;2.17;;;1.90;;
6937;SDS011;40040;42.706;23.372;2023-04-16T12:24:54;2.40;;;2.20;;
6937;SDS011;40040;42.706;23.372;2023-04-16T12:27:22;2.38;;;2.00;;
6937;SDS011;40040;42.706;23.372;2023-04-16T12:30:02;2.05;;;1.90;;
6937;SDS011;40040;42.706;23.372;2023-04-16T12:32:30;2.05;;;1.70;;
6937;SDS011;40040;42.706;23.372;2023-04-16T12:34:57;2.38;;;1.70;;
6937;SDS011;40040;42.706;23.372;2023-04-16T12:37:26;2.55;;;2.00;;
6937;SDS011;40040;42.706;23.372;2023-04-16T12:39:52;2.08;;;1.73;;
6937;SDS011;40040;42.706;23.372;2023-04-16T12:42:19;2.10;;;2.00;;
6937;SDS011;40040;42.706;23.372;2023-04-16T12:44:46;1.75;;;1.65;;
6937;SDS011;40040;42.706;23.372;2023-04-16T12:47:13;1.90;;;1.80;;
6937;SDS011;40040;42.706;23.372;2023-04-16T12:49:41;2.33;;;2.00;;
6937;SDS011;40040;42.706;23.372;2023-04-16T12:52:08;1.90;;;1.80;;
6937;SDS011;40040;42.706;23.372;2023-04-16T12:54:36;2.35;;;1.75;;
6937;SDS011;40040;42.706;23.372;2023-04-16T12:57:03;2.25;;;1.80;;
6937;SDS011;40040;42.706;23.372;2023-04-16T12:59:30;2.22;;;1.95;;
6937;SDS011;40040;42.706;23.372;2023-04-16T13:01:59;2.00;;;1.90;;
6937;SDS011;40040;42.706;23.372;2023-04-16T13:04:26;3.35;;;2.10;;
6937;SDS011;40040;42.706;23.372;2023-04-16T13:06:52;3.22;;;1.90;;
6937;SDS011;40040;42.706;23.372;2023-04-16T13:09:19;2.10;;;1.67;;
6937;SDS011;40040;42.706;23.372;2023-04-16T13:11:47;2.35;;;2.00;;
6937;SDS011;40040;42.706;23.372;2023-04-16T13:14:14;2.22;;;2.03;;
6937;SDS011;40040;42.706;23.372;2023-04-16T13:16:41;2.28;;;2.17;;
6937;SDS011;40040;42.706;23.372;2023-04-16T13:19:08;3.53;;;2.03;;
6937;SDS011;40040;42.706;23.372;2023-04-16T13:21:35;2.10;;;1.90;;
6937;SDS011;40040;42.706;23.372;2023-04-16T13:24:01;1.92;;;1.80;;
6937;SDS011;40040;42.706;23.372;2023-04-16T13:26:28;2.10;;;1.90;;
6937;SDS011;40040;42.706;23.372;2023-04-16T13:28:57;4.00;;;2.03;;
6937;SDS011;40040;42.706;23.372;2023-04-16T13:31:24;3.33;;;2.70;;
6937;SDS011;40040;42.706;23.372;2023-04-16T13:33:50;3.38;;;2.85;;
6937;SDS011;40040;42.706;23.372;2023-04-16T13:36:17;3.30;;;3.10;;
6937;SDS011;40040;42.706;23.372;2023-04-16T13:38:44;3.58;;;2.78;;
6937;SDS011;40040;42.706;23.372;2023-04-16T13:41:11;4.25;;;3.10;;
6937;SDS011;40040;42.706;23.372;2023-04-16T13:43:38;2.53;;;2.33;;
6937;SDS011;40040;42.706;23.372;2023-04-16T13:46:06;2.65;;;2.45;;
6937;SDS011;40040;42.706;23.372;2023-04-16T13:48:33;2.35;;;2.17;;
6937;SDS011;40040;42.706;23.372;2023-04-16T13:51:00;5.70;;;2.60;;
6937;SDS011;40040;42.706;23.372;2023-04-16T13:53:28;2.40;;;2.30;;
6937;SDS011;40040;42.706;23.372;2023-04-16T13:55:54;3.08;;;2.42;;
6937;SDS011;40040;42.706;23.372;2023-04-16T13:58:21;2.65;;;2.08;;
6937;SDS011;40040;42.706;23.372;2023-04-16T14:00:48;2.60;;;2.40;;
6937;SDS011;40040;42.706;23.372;2023-04-16T14:03:16;2.22;;;2.13;;
6937;SDS011;40040;42.706;23.372;2023-04-16T14:05:43;2.40;;;2.20;;
6937;SDS011;40040;42.706;23.372;2023-04-16T14:08:10;2.90;;;2.40;;
6937;SDS011;40040;42.706;23.372;2023-04-16T14:10:38;3.03;;;2.58;;
6937;SDS011;40040;42.706;23.372;2023-04-16T14:13:05;3.53;;;2.42;;
6937;SDS011;40040;42.706;23.372;2023-04-16T14:15:32;3.35;;;2.60;;
6937;SDS011;40040;42.706;23.372;2023-04-16T14:17:59;2.58;;;2.38;;
6937;SDS011;40040;42.706;23.372;2023-04-16T14:20:29;2.22;;;2.00;;
6937;SDS011;40040;42.706;23.372;2023-04-16T14:22:56;2.42;;;2.10;;
6937;SDS011;40040;42.706;23.372;2023-04-16T14:25:22;2.70;;;2.50;;
6937;SDS011;40040;42.706;23.372;2023-04-16T14:27:49;2.47;;;2.38;;
6937;SDS011;40040;42.706;23.372;2023-04-16T14:30:16;4.55;;;2.80;;
6937;SDS011;40040;42.706;23.372;2023-04-16T14:32:44;9.48;;;3.15;;
6937;SDS011;40040;42.706;23.372;2023-04-16T14:35:11;3.95;;;2.92;;
6937;SDS011;40040;42.706;23.372;2023-04-16T14:37:39;4.28;;;3.17;;
6937;SDS011;40040;42.706;23.372;2023-04-16T14:40:07;6.75;;;3.70;;
6937;SDS011;40040;42.706;23.372;2023-04-16T14:42:35;3.42;;;3.13;;
6937;SDS011;40040;42.706;23.372;2023-04-16T14:45:02;5.35;;;3.28;;
6937;SDS011;40040;42.706;23.372;2023-04-16T14:47:30;3.28;;;3.08;;
6937;SDS011;40040;42.706;23.372;2023-04-16T14:49:57;2.95;;;2.75;;